Barton, New York
Current Conditions -  °F | °C
As of 3:53 PM on Monday 22 Dec 2014 (Local Time) from KELM Reporting Station
Overcast Overcast  
Wind Chill: 32°   Ceiling: 3200
Heat Index: 37°   Visibility: 10mi
Dew Point: 26°   Wind: 6mph
Humidity: 65%   Direction: 220°SW
Pressure: 30.16"   Gusts: NA
Location:  42.04°N, 76.45°W
Report Text: KELM 222053Z 22005KT 10SM OVC032 03/M03 A3016 RMK AO2 SLP223 T00281033 55004
Loading
Personal Weather Stations






























Interactive Weather Map New forecast layout! Learn more

10-Day Weather Forecast

Advertisements
Track Severe Weather on mobile